Time;durP1;ratioP1;P1;durP2;ratioP2;P2;SDS_P1;SDS_P2;PMS_P1;PMS_P2;Temp;Humidity;BMP_temperature;BMP_pressure;BME280_temperature;BME280_humidity;BME280_pressure;Samples;Min_cycle;Max_cycle;Signal;HPM_P1;HPM_P2
2023/09/06 00:01:04;;;;;;;0.50;0.50;;;;;;;;;;5036687;28;20049;-78
2023/09/06 00:03:30;;;;;;;0.40;0.40;;;;;;;;;;5035757;28;20130;-78
2023/09/06 00:05:58;;;;;;;0.40;0.40;;;;;;;;;;5036150;28;20059;-79
2023/09/06 00:08:24;;;;;;;0.50;0.50;;;;;;;;;;5054011;28;20024;-78
2023/09/06 00:10:51;;;;;;;0.40;0.40;;;;;;;;;;5035754;28;20123;-78
2023/09/06 00:13:17;;;;;;;0.50;0.50;;;;;;;;;;5036781;28;20401;-78
2023/09/06 00:15:44;;;;;;;0.40;0.40;;;;;;;;;;5035919;28;20044;-78
2023/09/06 00:18:10;;;;;;;0.43;0.43;;;;;;;;;;5053507;28;20520;-79
2023/09/06 00:20:38;;;;;;;0.55;0.55;;;;;;;;;;5035901;28;20025;-78
2023/09/06 00:23:09;;;;;;;0.50;0.50;;;;;;;;;;5035797;28;20017;-78
2023/09/06 00:25:35;;;;;;;0.40;0.40;;;;;;;;;;5035730;28;20025;-78
2023/09/06 00:28:06;;;;;;;0.45;0.45;;;;;;;;;;5053777;28;20025;-78
2023/09/06 00:30:33;;;;;;;0.52;0.52;;;;;;;;;;5035533;28;20032;-78
2023/09/06 00:33:00;;;;;;;0.50;0.50;;;;;;;;;;5053923;28;20033;-79
2023/09/06 00:35:26;;;;;;;0.40;0.40;;;;;;;;;;5035811;28;20139;-78
2023/09/06 00:37:53;;;;;;;0.80;0.80;;;;;;;;;;5035728;28;20128;-78
2023/09/06 00:40:21;;;;;;;0.47;0.47;;;;;;;;;;5035542;28;20146;-78
2023/09/06 00:42:59;;;;;;;0.50;0.50;;;;;;;;;;5035694;28;20391;-79
2023/09/06 00:45:26;;;;;;;0.40;0.40;;;;;;;;;;5053413;28;20037;-78
2023/09/06 00:47:53;;;;;;;0.60;0.60;;;;;;;;;;5035363;28;20017;-80
2023/09/06 00:50:21;;;;;;;0.47;0.47;;;;;;;;;;5035599;28;20049;-78
2023/09/06 00:52:47;;;;;;;0.52;0.52;;;;;;;;;;5053192;28;20032;-79
2023/09/06 00:55:13;;;;;;;1.00;0.68;;;;;;;;;;5035405;28;20049;-79
2023/09/06 00:57:40;;;;;;;0.50;0.50;;;;;;;;;;5035555;28;20029;-79
2023/09/06 01:00:17;;;;;;;0.50;0.50;;;;;;;;;;5035164;28;20032;-77
2023/09/06 01:02:44;;;;;;;0.50;0.50;;;;;;;;;;5035705;28;20474;-78
2023/09/06 01:05:11;;;;;;;0.40;0.40;;;;;;;;;;5035399;28;20033;-77
2023/09/06 01:07:38;;;;;;;0.50;0.50;;;;;;;;;;5035134;28;20025;-78
2023/09/06 01:10:05;;;;;;;0.50;0.50;;;;;;;;;;5035460;28;20025;-78
2023/09/06 01:12:34;;;;;;;0.50;0.50;;;;;;;;;;5034998;28;20025;-78
2023/09/06 01:15:00;;;;;;;0.50;0.50;;;;;;;;;;5035406;28;20102;-78
2023/09/06 01:17:28;;;;;;;0.50;0.50;;;;;;;;;;5035715;28;20389;-77
2023/09/06 01:19:57;;;;;;;0.52;0.52;;;;;;;;;;5035476;28;20013;-78
2023/09/06 01:22:34;;;;;;;0.60;0.60;;;;;;;;;;5035706;28;20363;-78
2023/09/06 01:25:01;;;;;;;0.40;0.40;;;;;;;;;;5035156;28;20037;-77
2023/09/06 01:27:27;;;;;;;0.50;0.50;;;;;;;;;;5035450;28;20124;-78
2023/09/06 01:29:53;;;;;;;0.40;0.40;;;;;;;;;;5035132;28;20370;-79
2023/09/06 01:32:19;;;;;;;0.50;0.50;;;;;;;;;;5052798;28;20045;-80
2023/09/06 01:34:46;;;;;;;0.40;0.40;;;;;;;;;;5035042;28;20377;-78
2023/09/06 01:37:12;;;;;;;0.50;0.50;;;;;;;;;;5053168;28;20021;-79
2023/09/06 01:39:38;;;;;;;0.47;0.47;;;;;;;;;;5035221;28;20390;-77
2023/09/06 01:42:04;;;;;;;0.50;0.50;;;;;;;;;;5035072;28;20029;-77
2023/09/06 01:44:31;;;;;;;0.50;0.50;;;;;;;;;;5035188;28;20532;-78
2023/09/06 01:46:58;;;;;;;0.50;0.50;;;;;;;;;;5034989;28;20025;-77
2023/09/06 01:49:24;;;;;;;0.40;0.40;;;;;;;;;;5034702;28;20043;-77
2023/09/06 01:51:50;;;;;;;0.50;0.50;;;;;;;;;;5037097;28;20057;-78
2023/09/06 01:54:16;;;;;;;0.50;0.50;;;;;;;;;;5038295;28;20136;-77
2023/09/06 01:56:42;;;;;;;0.50;0.50;;;;;;;;;;5055961;28;20389;-77
2023/09/06 01:59:08;;;;;;;0.50;0.50;;;;;;;;;;5038580;28;20378;-79
2023/09/06 02:01:35;;;;;;;0.50;0.50;;;;;;;;;;5038195;28;20512;-77
2023/09/06 02:04:03;;;;;;;0.40;0.40;;;;;;;;;;5056394;28;20125;-78
2023/09/06 02:06:29;;;;;;;0.40;0.40;;;;;;;;;;5038239;28;20139;-79
2023/09/06 02:08:56;;;;;;;0.40;0.40;;;;;;;;;;5055663;28;20060;-77
2023/09/06 02:11:22;;;;;;;0.60;0.60;;;;;;;;;;5056579;28;20059;-79
2023/09/06 02:13:48;;;;;;;0.73;0.73;;;;;;;;;;5037810;28;20163;-78
2023/09/06 02:16:15;;;;;;;0.50;0.50;;;;;;;;;;5038606;28;20018;-78
2023/09/06 02:18:41;;;;;;;0.50;0.50;;;;;;;;;;5038081;28;20017;-79
2023/09/06 02:21:07;;;;;;;0.50;0.50;;;;;;;;;;5038154;28;20124;-78
2023/09/06 02:23:35;;;;;;;0.50;0.50;;;;;;;;;;5037697;28;20025;-78
2023/09/06 02:26:03;;;;;;;0.50;0.50;;;;;;;;;;5038063;28;20029;-78
2023/09/06 02:28:29;;;;;;;0.50;0.50;;;;;;;;;;5037940;28;20063;-78
2023/09/06 02:30:55;;;;;;;0.47;0.47;;;;;;;;;;5037666;28;20025;-78
2023/09/06 02:33:21;;;;;;;0.50;0.50;;;;;;;;;;5056099;28;20024;-79
2023/09/06 02:35:49;;;;;;;0.45;0.45;;;;;;;;;;5037813;28;20446;-78
2023/09/06 02:38:15;;;;;;;0.50;0.50;;;;;;;;;;5037454;28;20047;-79
2023/09/06 02:40:41;;;;;;;0.50;0.50;;;;;;;;;;5037727;28;20351;-79
2023/09/06 02:43:10;;;;;;;0.50;0.50;;;;;;;;;;5037854;28;20031;-79
2023/09/06 02:45:36;;;;;;;0.50;0.50;;;;;;;;;;5037258;28;20029;-79
2023/09/06 02:48:06;;;;;;;0.60;0.60;;;;;;;;;;5037715;28;20429;-78
2023/09/06 02:50:34;;;;;;;0.50;0.50;;;;;;;;;;5055552;28;20021;-78
2023/09/06 02:53:03;;;;;;;0.50;0.50;;;;;;;;;;5055600;28;20155;-79
2023/09/06 02:55:29;;;;;;;0.50;0.50;;;;;;;;;;5037419;28;20108;-79
2023/09/06 02:57:55;;;;;;;0.50;0.50;;;;;;;;;;5037158;28;20025;-78
2023/09/06 03:00:25;;;;;;;0.60;0.60;;;;;;;;;;5055220;28;20028;-78
2023/09/06 03:02:59;;;;;;;0.70;0.70;;;;;;;;;;5055428;28;20028;-78
2023/09/06 03:05:27;;;;;;;0.60;0.60;;;;;;;;;;5036653;28;20029;-79
2023/09/06 03:07:56;;;;;;;0.50;0.50;;;;;;;;;;5037310;28;20029;-78
2023/09/06 03:10:23;;;;;;;0.50;0.50;;;;;;;;;;5037103;28;20021;-79
2023/09/06 03:12:56;;;;;;;0.60;0.60;;;;;;;;;;5054762;28;20470;-79
2023/09/06 03:15:22;;;;;;;0.50;0.50;;;;;;;;;;5054702;28;20037;-78
2023/09/06 03:17:53;;;;;;;0.57;0.57;;;;;;;;;;5037330;28;20035;-79
2023/09/06 03:20:22;;;;;;;0.60;0.60;;;;;;;;;;5036606;28;20021;-78
2023/09/06 03:22:51;;;;;;;0.50;0.50;;;;;;;;;;5036902;28;20017;-78
2023/09/06 03:25:18;;;;;;;0.80;0.80;;;;;;;;;;5054379;28;20029;-79
2023/09/06 03:27:45;;;;;;;0.50;0.50;;;;;;;;;;5054726;28;20028;-79
2023/09/06 03:30:15;;;;;;;0.55;0.55;;;460.90;2380.80;;;;;;5054695;28;20490;-78
2023/09/06 03:32:42;;;;;;;0.60;0.60;;;460.90;2380.80;;;;;;5036482;28;20057;-80
2023/09/06 03:35:09;;;;;;;0.50;0.50;;;460.80;2380.80;;;;;;5036987;28;20067;-79
2023/09/06 03:37:35;;;;;;;0.50;0.50;;;;;;;;;;5036685;28;20074;-77
2023/09/06 03:40:01;;;;;;;0.50;0.50;;;;;;;;;;5036844;28;20025;-77
2023/09/06 03:42:27;;;;;;;0.40;0.40;;;;;;;;;;5036668;28;20025;-77
2023/09/06 03:44:53;;;;;;;0.50;0.50;;;;;;;;;;5054661;28;20028;-77
2023/09/06 03:47:19;;;;;;;0.40;0.40;;;;;;;;;;5036251;28;20029;-77
2023/09/06 03:49:46;;;;;;;0.50;0.50;;;;;;;;;;5054052;28;20118;-78
2023/09/06 03:52:12;;;;;;;0.50;0.50;;;;;;;;;;5036425;28;20112;-79
2023/09/06 03:54:38;;;;;;;0.55;0.55;;;;;;;;;;5035829;28;20397;-76
2023/09/06 03:57:05;;;;;;;0.50;0.50;;;;;;;;;;5036079;28;20017;-76
2023/09/06 03:59:35;;;;;;;0.40;0.40;;;;;;;;;;5036219;28;20115;-77
2023/09/06 04:02:13;;;;;;;0.50;0.50;;;;;;;;;;5035978;28;20048;-77
2023/09/06 04:04:39;;;;;;;0.50;0.50;;;;;;;;;;5036736;28;20029;-77
2023/09/06 04:07:07;;;;;;;0.60;0.60;;;;;;;;;;5036020;28;20029;-77
2023/09/06 04:09:37;;;;;;;0.50;0.50;;;;;;;;;;5035891;28;20029;-79
2023/09/06 04:12:05;;;;;;;0.57;0.57;;;;;;;;;;5036090;28;20028;-79
2023/09/06 04:14:35;;;;;;;0.52;0.52;;;;;;;;;;5035381;28;20040;-78
2023/09/06 04:17:01;;;;;;;0.73;0.73;;;;;;;;;;5036140;28;20021;-79
2023/09/06 04:19:27;;;;;;;0.60;0.60;;;;;;;;;;5053923;28;20438;-79
2023/09/06 04:21:55;;;;;;;0.50;0.50;;;;;;;;;;5035650;28;20086;-78
2023/09/06 04:24:21;;;;;;;0.40;0.40;;;;;;;;;;5035835;28;20032;-78
2023/09/06 04:26:48;;;;;;;0.50;0.50;;;;;;;;;;5035932;28;20052;-79
2023/09/06 04:29:14;;;;;;;0.50;0.50;;;;;;;;;;5035579;28;20017;-79
2023/09/06 04:31:42;;;;;;;0.68;0.63;;;;;;;;;;5035762;28;20023;-79
2023/09/06 04:34:08;;;;;;;0.50;0.50;;;;;;;;;;5035826;28;20025;-81
2023/09/06 04:36:36;;;;;;;0.55;0.55;;;;;;;;;;5035520;28;20025;-78
2023/09/06 04:39:03;;;;;;;0.50;0.50;;;;;;;;;;5035427;28;20048;-79
2023/09/06 04:41:31;;;;;;;0.50;0.50;;;;;;;;;;5035674;28;20025;-77
2023/09/06 04:43:57;;;;;;;0.50;0.50;;;;;;;;;;5035648;28;20048;-79
2023/09/06 04:46:23;;;;;;;0.50;0.50;;;;;;;;;;5035593;28;20032;-79
2023/09/06 04:48:50;;;;;;;0.47;0.47;;;;;;;;;;5053189;28;20051;-79
2023/09/06 04:51:16;;;;;;;0.50;0.50;;;;;;;;;;5035398;28;20378;-78
2023/09/06 04:53:42;;;;;;;0.50;0.50;;;;;;;;;;5035366;28;20125;-78
2023/09/06 04:56:08;;;;;;;0.68;0.68;;;;;;;;;;5035618;28;20381;-78
2023/09/06 04:58:35;;;;;;;0.50;0.50;;;;;;;;;;5035181;28;20524;-78
2023/09/06 05:01:06;;;;;;;0.40;0.40;;;;;;;;;;5035291;28;20079;-78
2023/09/06 05:03:33;;;;;;;0.40;0.40;;;;;;;;;;5035145;28;20436;-78
2023/09/06 05:06:00;;;;;;;0.50;0.50;;;;;;;;;;5035404;28;20125;-78
2023/09/06 05:08:27;;;;;;;0.45;0.45;;;;;;;;;;5053012;28;20409;-78
2023/09/06 05:10:53;;;;;;;0.80;0.80;;;;;;;;;;5035532;28;20021;-78
2023/09/06 05:13:19;;;;;;;0.50;0.50;;;;;;;;;;5035500;28;20021;-76
2023/09/06 05:15:46;;;;;;;0.60;0.60;;;;;;;;;;5035408;28;20394;-78
2023/09/06 05:18:14;;;;;;;0.50;0.50;;;;;;;;;;5035185;28;20538;-78
2023/09/06 05:20:40;;;;;;;0.60;0.60;;;;;;;;;;5035097;28;20029;-78
2023/09/06 05:23:07;;;;;;;0.40;0.40;;;;;;;;;;5053195;28;20032;-77
2023/09/06 05:25:34;;;;;;;0.52;0.52;;;;;;;;;;5035167;28;20041;-77
2023/09/06 05:28:01;;;;;;;0.60;0.60;;;;;;;;;;5039302;28;20036;-78
2023/09/06 05:30:27;;;;;;;0.52;0.52;;;;;;;;;;5039367;28;20032;-78
2023/09/06 05:32:56;;;;;;;0.60;0.60;;;;;;;;;;5039350;28;20440;-80
2023/09/06 05:35:23;;;;;;;0.50;0.50;;;;;;;;;;5039484;28;20033;-79
2023/09/06 05:37:49;;;;;;;0.50;0.50;;;;;;;;;;5061632;28;20084;-76
2023/09/06 05:40:15;;;;;;;0.50;0.50;;;;;;;;;;5054166;28;20025;-78
2023/09/06 05:42:42;;;;;;;0.50;0.50;;;;;;;;;;5039364;28;20043;-78
2023/09/06 05:45:11;;;;;;;0.50;0.50;;;;;;;;;;5038996;28;20025;-77
2023/09/06 05:47:38;;;;;;;0.57;0.57;;;;;;;;;;5038868;28;20031;-79
2023/09/06 05:50:05;;;;;;;0.73;0.73;;;;;;;;;;5038789;28;20021;-77
2023/09/06 05:52:31;;;;;;;0.50;0.50;;;;;;;;;;5056019;28;20025;-78
2023/09/06 05:54:57;;;;;;;0.68;0.68;;;;;;;;;;5056317;28;20064;-78
2023/09/06 05:57:24;;;;;;;0.60;0.60;;;;;;;;;;5038699;28;20048;-77
2023/09/06 05:59:50;;;;;;;0.50;0.50;;;;;;;;;;5038256;28;20055;-78
2023/09/06 06:02:17;;;;;;;0.60;0.60;;;;;;;;;;5038568;28;20025;-78
2023/09/06 06:04:46;;;;;;;0.47;0.47;;;;;;;;;;5038360;28;20035;-78
2023/09/06 06:07:13;;;;;;;0.45;0.45;;;;;;;;;;5038221;28;20060;-79
2023/09/06 06:09:39;;;;;;;0.50;0.50;;;;;;;;;;5038483;28;20025;-79
2023/09/06 06:12:06;;;;;;;0.50;0.50;;;;;;;;;;5038558;28;20028;-78
2023/09/06 06:14:32;;;;;;;0.60;0.60;;;;;;;;;;5038266;28;20429;-78
2023/09/06 06:16:58;;;;;;;1.08;0.75;;;;;;;;;;5038507;28;20017;-78
2023/09/06 06:19:24;;;;;;;0.50;0.50;;;;;;;;;;5039176;28;20044;-77
2023/09/06 06:21:51;;;;;;;0.70;0.70;;;;;;;;;;5037916;28;20462;-79
2023/09/06 06:24:17;;;;;;;0.60;0.60;;;;;;;;;;5038070;28;20363;-77
2023/09/06 06:26:43;;;;;;;0.40;0.40;;;;;;;;;;5038137;28;20033;-78
2023/09/06 06:29:09;;;;;;;0.50;0.50;;;;;;;;;;5055691;28;20058;-77
2023/09/06 06:31:35;;;;;;;0.50;0.50;;;;;;;;;;5037868;28;20025;-78
2023/09/06 06:34:01;;;;;;;0.40;0.40;;;;;;;;;;5055933;28;20021;-79
2023/09/06 06:36:28;;;;;;;0.50;0.50;;;;;;;;;;5037323;28;20032;-79
2023/09/06 06:38:54;;;;;;;0.47;0.47;;;;;;;;;;5037890;28;20025;-79
2023/09/06 06:41:22;;;;;;;0.70;0.70;;;;;;;;;;5037931;28;20025;-79
2023/09/06 06:43:49;;;;;;;0.40;0.40;;;;;;;;;;5038506;28;20075;-78
2023/09/06 06:46:32;;;;;;;0.40;0.40;;;;;;;;;;5037766;28;20025;-79
2023/09/06 06:48:59;;;;;;;0.50;0.50;;;;;;;;;;5037322;28;20052;-79
2023/09/06 06:51:25;;;;;;;0.50;0.50;;;;;;;;;;5037312;28;20025;-78
2023/09/06 06:53:51;;;;;;;0.40;0.40;;;;;;;;;;5037293;28;20513;-77
2023/09/06 06:56:21;;;;;;;0.60;0.60;;;;;;;;;;5037207;28;20053;-77
2023/09/06 06:58:51;;;;;;;0.40;0.40;;;;;;;;;;5038230;28;20025;-77
2023/09/06 07:01:17;;;;;;;0.45;0.45;;;;;;;;;;5038023;28;20118;-77
2023/09/06 07:03:43;;;;;;;0.43;0.43;;;;;;;;;;5037014;28;20031;-77
2023/09/06 07:06:09;;;;;;;0.68;0.68;;;;;;;;;;5054905;28;20025;-77
2023/09/06 07:08:36;;;;;;;0.50;0.50;;;;;;;;;;5037263;28;20021;-77
2023/09/06 07:11:04;;;;;;;0.47;0.47;;;;;;;;;;5036962;28;20047;-77
2023/09/06 07:13:30;;;;;;;0.40;0.40;;;;;;;;;;5037199;28;20017;-77
2023/09/06 07:15:56;;;;;;;0.40;0.40;;;;;;;;;;5037164;28;20025;-77
2023/09/06 07:18:22;;;;;;;0.40;0.40;;;;;;;;;;5054817;28;20026;-77
2023/09/06 07:20:48;;;;;;;0.40;0.40;;;;;;;;;;5037092;28;20470;-78
2023/09/06 07:23:15;;;;;;;0.40;0.40;;;;;;;;;;5054642;28;20021;-77
2023/09/06 07:25:47;;;;;;;0.40;0.40;;;;;;;;;;5036792;28;20382;-77
2023/09/06 07:28:13;;;;;;;;;;;;;;;;;;5055230;28;20021;-77
2023/09/06 07:30:39;;;;;;;0.40;0.40;;;;;;;;;;5036599;28;19911;-77
2023/09/06 07:33:05;;;;;;;0.52;0.52;;;;;;;;;;5036882;28;20021;-77
2023/09/06 07:35:31;;;;;;;0.40;0.40;;;;;;;;;;5054714;28;20028;-77
2023/09/06 07:37:58;;;;;;;0.40;0.40;;;;;;;;;;5036453;28;20462;-77
2023/09/06 07:40:24;;;;;;;0.40;0.40;;;;;;;;;;5036625;28;20029;-77
2023/09/06 07:42:50;;;;;;;0.63;0.63;;;;;;;;;;5036627;28;20025;-77
2023/09/06 07:45:17;;;;;;;0.30;0.30;;;;;;;;;;5036203;28;20086;-78
2023/09/06 07:47:43;;;;;;;0.40;0.40;;;;;;;;;;5037262;28;20400;-79
2023/09/06 07:50:09;;;;;;;0.40;0.40;;;;;;;;;;5035800;28;20489;-80
2023/09/06 07:52:36;;;;;;;0.40;0.40;;;;;;;;;;5054117;28;20025;-79
2023/09/06 07:55:03;;;;;;;0.40;0.40;;;;;;;;;;5054490;28;20592;-78
2023/09/06 07:57:29;;;;;;;0.40;0.40;;;;;;;;;;5036522;28;20033;-79
2023/09/06 07:59:55;;;;;;;0.45;0.45;;;;;;;;;;5036156;28;20378;-81
2023/09/06 08:02:22;;;;;;;0.30;0.30;;;;;;;;;;5054326;28;20021;-81
2023/09/06 08:04:50;;;;;;;0.30;0.30;;;;;;;;;;5036256;28;20159;-80
2023/09/06 08:07:16;;;;;;;0.40;0.40;;;;;;;;;;5036018;28;20025;-80
2023/09/06 08:09:43;;;;;;;0.40;0.40;;;;;;;;;;5036134;28;20029;-78
2023/09/06 08:12:09;;;;;;;0.40;0.40;;;;;;;;;;5035831;28;20021;-78
2023/09/06 08:14:35;;;;;;;0.30;0.30;;;;;;;;;;5053717;28;20104;-81
2023/09/06 08:17:02;;;;;;;0.30;0.30;;;;;;;;;;5036070;28;20482;-79
2023/09/06 08:19:28;;;;;;;0.30;0.30;;;;;;;;;;5053859;28;20068;-79
2023/09/06 08:21:54;;;;;;;0.40;0.40;;;;;;;;;;5054369;28;20501;-78
2023/09/06 08:24:20;;;;;;;0.30;0.30;;;;;;;;;;5053830;28;20029;-78
2023/09/06 08:26:49;;;;;;;0.40;0.40;;;;;;;;;;5035664;28;20029;-80
2023/09/06 08:29:15;;;;;;;0.57;0.57;;;;;;;;;;5035905;28;20021;-76
2023/09/06 08:31:42;;;;;;;0.50;0.50;;;;;;;;;;5035910;28;20070;-78
2023/09/06 08:34:08;;;;;;;0.30;0.30;;;;;;;;;;5035596;28;20024;-76
2023/09/06 08:36:34;;;;;;;0.30;0.30;;;;;;;;;;5035899;28;20021;-78
2023/09/06 08:39:00;;;;;;;0.30;0.30;;;;;;;;;;5035992;28;20079;-80
2023/09/06 08:41:27;;;;;;;0.30;0.30;;;;;;;;;;5053162;28;20048;-78
2023/09/06 08:43:53;;;;;;;0.30;0.30;;;;;;;;;;5035656;28;20052;-80
2023/09/06 08:46:25;;;;;;;0.40;0.40;;;;;;;;;;5053515;28;20032;-78
2023/09/06 08:48:51;;;;;;;0.30;0.30;;;;;;;;;;5035552;28;20104;-80
2023/09/06 08:51:20;;;;;;;0.30;0.30;;;;;;;;;;5035815;28;20025;-80
2023/09/06 08:53:48;;;;;;;0.20;0.20;;;;;;;;;;5035421;28;20053;-79
2023/09/06 08:56:15;;;;;;;0.43;0.43;;;;;;;;;;5035352;28;20060;-78
2023/09/06 08:58:41;;;;;;;0.30;0.30;;;;;;;;;;5035651;28;20029;-80
2023/09/06 09:01:08;;;;;;;1.55;0.65;;;;;;;;;;5038963;28;20056;-83
2023/09/06 09:03:34;;;;;;;0.30;0.30;;;;;;;;;;5057320;28;20052;-80
2023/09/06 09:06:01;;;;;;;0.30;0.30;;;;;;;;;;5039610;28;20021;-80
2023/09/06 09:08:30;;;;;;;0.30;0.30;;;;;;;;;;5037094;28;20053;-81
2023/09/06 09:11:18;;;;;;;0.30;0.30;;;;;;;;;;5037897;28;20031;-80
2023/09/06 09:13:45;;;;;;;0.30;0.30;;;;;;;;;;5036548;28;20010;-81
2023/09/06 09:16:15;;;;;;;0.40;0.40;;;;;;;;;;5033524;28;20036;-82
2023/09/06 09:18:42;;;;;;;0.20;0.20;;;;;;;;;;5020972;28;20423;-82
2023/09/06 09:21:09;;;;;;;0.38;0.38;;;;;;;;;;5055245;28;20140;-81
2023/09/06 09:23:46;;;;;;;0.30;0.30;;;;;;;;;;5057447;28;20028;-82
2023/09/06 09:26:12;;;;;;;0.20;0.20;;;;;;;;;;5040842;28;20059;-80
2023/09/06 09:28:41;;;;;;;0.30;0.30;;;;;;;;;;5057235;28;20476;-80
2023/09/06 09:31:11;;;;;;;0.20;0.20;;;;;;;;;;5039265;28;20040;-81
2023/09/06 09:33:37;;;;;;;0.20;0.20;;;;;;;;;;5039180;28;20462;-81
2023/09/06 09:36:05;;;;;;;0.30;0.30;;;;;;;;;;5039274;28;20036;-81
2023/09/06 09:38:31;;;;;;;0.30;0.30;;;;;;;;;;5038766;28;20028;-81
2023/09/06 09:41:05;;;;;;;0.30;0.30;;;;;;;;;;5038863;28;20037;-81
2023/09/06 09:43:31;;;;;;;0.30;0.30;;;;;;;;;;5038655;28;20049;-82
2023/09/06 09:45:57;;;;;;;0.30;0.30;;;;;;;;;;5023883;28;20033;-82
2023/09/06 09:48:29;;;;;;;0.20;0.20;;;;;;;;;;5019738;28;20021;-84
2023/09/06 09:50:55;;;;;;;0.23;0.23;;;;;;;;;;5019959;28;20021;-82
2023/09/06 09:53:25;;;;;;;0.20;0.20;;;;;;;;;;5018946;28;20068;-81
2023/09/06 09:55:55;;;;;;;0.20;0.20;;;;;;;;;;5036925;28;20022;-80
2023/09/06 09:58:21;;;;;;;0.20;0.20;;;;;;;;;;5018745;28;20379;-82
2023/09/06 10:00:50;;;;;;;0.25;0.25;;;;;;;;;;5019518;28;20387;-83
2023/09/06 10:03:16;;;;;;;0.30;0.30;;;;;;;;;;5035767;28;20025;-80
2023/09/06 10:05:43;;;;;;;0.47;0.47;;;;;;;;;;5018483;28;20037;-81
2023/09/06 10:08:10;;;;;;;0.40;0.40;;;;;;;;;;5019580;28;20363;-82
2023/09/06 10:10:39;;;;;;;0.20;0.20;;;;;;;;;;5019383;28;20026;-80
2023/09/06 10:13:07;;;;;;;0.30;0.30;;;;;;;;;;5017729;28;20057;-80
2023/09/06 10:15:34;;;;;;;0.25;0.25;;;;;;;;;;5018499;28;20116;-80
2023/09/06 10:18:01;;;;;;;0.65;0.35;;;;;;;;;;5036028;28;20052;-80
2023/09/06 10:20:30;;;;;;;0.22;0.22;;;;;;;;;;5018492;28;20037;-81
2023/09/06 10:22:57;;;;;;;0.20;0.20;;;;;;;;;;5018395;28;20040;-81
2023/09/06 10:25:25;;;;;;;0.20;0.20;;;;;;;;;;5017854;28;20471;-80
2023/09/06 10:27:55;;;;;;;0.40;0.40;;;;;;;;;;5018414;28;20037;-81
2023/09/06 10:30:28;;;;;;;0.22;0.22;;;;;;;;;;5018144;28;20017;-81
2023/09/06 10:32:55;;;;;;;0.20;0.20;;;;;;;;;;5018154;28;20049;-80
2023/09/06 10:35:25;;;;;;;0.20;0.20;;;;;;;;;;5018179;28;20025;-81
2023/09/06 10:38:14;;;;;;;0.20;0.20;;;;;;;;;;5019677;28;20021;-81
2023/09/06 10:40:49;;;;;;;0.20;0.20;;;;;;;;;;5019229;28;20479;-80
2023/09/06 10:43:20;;;;;;;0.20;0.20;;;;;;;;;;5018278;28;20120;-80
2023/09/06 10:45:55;;;;;;;0.38;0.38;;;;;;;;;;5018244;28;20044;-81
2023/09/06 10:48:22;;;;;;;0.30;0.30;;;;;;;;;;5017864;28;20025;-81
2023/09/06 10:51:07;;;;;;;0.20;0.20;;;;;;;;;;5018050;28;20095;-81
2023/09/06 10:53:43;;;;;;;0.20;0.20;;;;;;;;;;5017142;28;20132;-81
2023/09/06 10:56:09;;;;;;;0.25;0.25;;;;;;;;;;5015629;28;20029;-81
2023/09/06 10:58:35;;;;;;;0.30;0.30;;;;;;;;;;5017819;28;20079;-82
2023/09/06 11:01:14;;;;;;;0.30;0.30;;;;;;;;;;5017258;28;20053;-83
2023/09/06 11:03:41;;;;;;;0.30;0.30;;;;;;;;;;5035714;28;20076;-80
2023/09/06 11:06:09;;;;;;;0.22;0.22;;;;;;;;;;5017938;28;20064;-80
2023/09/06 11:08:35;;;;;;;0.57;0.57;;;;;;;;;;5017420;28;20029;-80
2023/09/06 11:11:06;;;;;;;0.30;0.30;;;;;;;;;;5017353;28;20029;-81
2023/09/06 11:13:33;;;;;;;0.20;0.20;;;;;;;;;;5035412;28;20025;-80
2023/09/06 11:16:03;;;;;;;0.50;0.50;;;;;;;;;;5034903;28;20032;-80
2023/09/06 11:18:32;;;;;;;0.30;0.30;;;;;;;;;;5017362;28;20025;-82
2023/09/06 11:20:59;;;;;;;0.38;0.38;;;;;;;;;;5017158;28;20018;-81
2023/09/06 11:23:26;;;;;;;0.30;0.30;;;;;;;;;;5015791;28;20082;-81
2023/09/06 11:25:59;;;;;;;0.30;0.30;;;;;;;;;;5035177;28;20458;-80
2023/09/06 11:28:29;;;;;;;0.20;0.20;;;;;;;;;;5016895;28;20021;-81
2023/09/06 11:30:57;;;;;;;0.40;0.40;;;;;;;;;;5016891;28;20112;-80
2023/09/06 11:33:31;;;;;;;0.20;0.20;;;;;;;;;;5017351;28;20374;-81
2023/09/06 11:35:58;;;;;;;0.22;0.22;;;;;;;;;;5034665;28;20030;-79
2023/09/06 11:38:28;;;;;;;0.30;0.30;;;;;;;;;;5017065;28;20360;-81
2023/09/06 11:41:00;;;;;;;0.20;0.20;;;;;;;;;;5016927;28;20025;-80
2023/09/06 11:43:27;;;;;;;0.28;0.28;;;;;;;;;;5034291;28;20022;-81
2023/09/06 11:45:54;;;;;;;0.20;0.20;;;;;;;;;;5016720;28;20087;-81
2023/09/06 11:48:30;;;;;;;0.45;0.43;;;;;;;;;;5016724;28;20536;-82
2023/09/06 11:51:09;;;;;;;0.20;0.20;;;;;;;;;;5034392;28;20109;-82
2023/09/06 11:53:41;;;;;;;0.20;0.20;;;;;;;;;;5016253;28;20045;-81
2023/09/06 11:56:11;;;;;;;0.30;0.30;;;;;;;;;;5016719;28;20498;-80
2023/09/06 11:58:46;;;;;;;0.20;0.20;;;;;;;;;;5016443;28;20034;-81
2023/09/06 12:01:19;;;;;;;0.20;0.20;;;;;;;;;;5016749;28;20025;-82
2023/09/06 12:03:47;;;;;;;0.30;0.30;;;;;;;;;;5016401;28;20526;-82
2023/09/06 12:06:13;;;;;;;0.30;0.30;;;;;;;;;;5016985;28;20418;-80
2023/09/06 12:08:41;;;;;;;0.20;0.20;;;;;;;;;;5017073;28;20454;-82
2023/09/06 12:11:11;;;;;;;0.20;0.20;;;;;;;;;;5016513;28;20033;-81
2023/09/06 12:13:38;;;;;;;0.20;0.20;;;;;;;;;;5016575;28;20120;-81
2023/09/06 12:16:08;;;;;;;0.28;0.28;;;;;;;;;;5016932;28;20021;-82
2023/09/06 12:18:38;;;;;;;0.20;0.20;;;;;;;;;;5016491;28;20040;-81
2023/09/06 12:21:05;;;;;;;0.20;0.20;;;;;;;;;;5016488;28;20061;-79
2023/09/06 12:23:32;;;;;;;0.38;0.38;;;;;;;;;;5016224;28;20026;-80
2023/09/06 12:26:03;;;;;;;0.20;0.20;;;;;;;;;;5016302;28;20037;-80
2023/09/06 12:28:29;;;;;;;0.40;0.40;;;;;;;;;;5016672;28;20071;-81
2023/09/06 12:31:00;;;;;;;0.20;0.20;;;;;;;;;;5016503;28;20079;-82
2023/09/06 12:33:30;;;;;;;0.20;0.20;;;;;;;;;;5016637;28;20026;-87
2023/09/06 12:36:05;;;;;;;0.30;0.30;;;;;;;;;;5016110;28;20017;-83
2023/09/06 12:38:32;;;;;;;0.30;0.30;;;;;;;;;;5016388;28;20463;-82
2023/09/06 12:40:58;;;;;;;0.63;0.43;;;;;;;;;;5017628;28;20045;-83
2023/09/06 12:43:26;;;;;;;0.32;0.32;;;;;;;;;;5017259;28;20026;-83
2023/09/06 12:45:53;;;;;;;0.45;0.45;;;;;;;;;;5019532;28;20048;-79
2023/09/06 12:48:20;;;;;;;0.40;0.38;;;;;;;;;;5048060;28;20021;-82
2023/09/06 12:50:48;;;;;;;0.30;0.30;;;;;;;;;;5051974;28;20035;-81
2023/09/06 12:53:14;;;;;;;0.30;0.30;;;;;;;;;;5052498;28;20036;-81
2023/09/06 12:55:41;;;;;;;0.30;0.30;;;;;;;;;;5040156;28;20044;-81
2023/09/06 12:58:07;;;;;;;0.30;0.30;;;;;;;;;;5037229;28;20033;-81
2023/09/06 13:00:34;;;;;;;0.30;0.30;;;;;;;;;;5052806;28;20029;-79
2023/09/06 13:03:03;;;;;;;0.20;0.20;;;;;;;;;;5052692;28;20022;-79
2023/09/06 13:05:31;;;;;;;0.20;0.20;;;;;;;;;;5035711;28;20029;-79
2023/09/06 13:07:58;;;;;;;0.30;0.30;;;;;;;;;;5035435;28;20036;-79
2023/09/06 13:10:24;;;;;;;1.33;0.43;;;;;;;;;;5035679;28;20017;-80
2023/09/06 13:12:50;;;;;;;0.20;0.20;;;;;;;;;;5052637;28;20091;-79
2023/09/06 13:15:16;;;;;;;0.40;0.40;;;;;;;;;;5035657;28;20470;-79
2023/09/06 13:17:42;;;;;;;0.20;0.20;;;;;;;;;;5035176;28;20024;-81
2023/09/06 13:20:10;;;;;;;0.50;0.40;;;;;;;;;;5053765;28;20028;-81
2023/09/06 13:22:40;;;;;;;0.52;0.50;;;;;;;;;;5035752;28;20523;-81
2023/09/06 13:25:07;;;;;;;0.20;0.20;;;;;;;;;;5033481;28;20106;-79
2023/09/06 13:27:33;;;;;;;0.40;0.40;;;;;;;;;;5014859;28;20043;-81
2023/09/06 13:29:59;;;;;;;0.20;0.20;;;;;;;;;;5015506;28;20453;-80
2023/09/06 13:32:25;;;;;;;0.20;0.20;;;;;;;;;;5015190;28;20076;-83
2023/09/06 13:34:52;;;;;;;0.38;0.38;;;;;;;;;;5015623;28;20040;-81
2023/09/06 13:37:19;;;;;;;0.30;0.30;;;;;;;;;;5033356;28;20022;-83
2023/09/06 13:39:45;;;;;;;0.20;0.20;;;;;;;;;;5015323;28;20525;-82
2023/09/06 13:42:11;;;;;;;0.43;0.43;;;;;;;;;;5015569;28;20056;-82
2023/09/06 13:44:37;;;;;;;0.20;0.20;;;;;;;;;;5015279;28;20041;-81
2023/09/06 13:47:07;;;;;;;0.20;0.20;;;;;;;;;;5016155;28;20030;-82
2023/09/06 13:49:33;;;;;;;0.20;0.20;;;;;;;;;;5019528;28;20021;-81
2023/09/06 13:51:59;;;;;;;0.30;0.30;;;;;;;;;;5018912;28;20032;-83
2023/09/06 13:54:25;;;;;;;0.20;0.20;;;;;;;;;;5018622;28;20053;-83
2023/09/06 13:56:51;;;;;;;0.30;0.30;;;;;;;;;;5018966;28;20029;-82
2023/09/06 13:59:17;;;;;;;0.30;0.30;;;;;;;;;;5018665;28;20060;-82
2023/09/06 14:01:44;;;;;;;0.55;0.52;;;;;;;;;;5018909;28;20032;-82
2023/09/06 14:04:10;;;;;;;0.20;0.20;;;;;;;;;;5019022;28;20029;-82
2023/09/06 14:06:40;;;;;;;0.30;0.30;;;;;;;;;;5036446;28;20033;-81
2023/09/06 14:09:10;;;;;;;0.28;0.28;;;;;;;;;;5018700;28;20018;-82
2023/09/06 14:11:36;;;;;;;0.30;0.30;;;;;;;;;;5018483;28;20033;-81
2023/09/06 14:14:06;;;;;;;0.20;0.20;;;;;;;;;;5018390;28;20116;-83
2023/09/06 14:16:32;;;;;;;0.30;0.30;;;;;;;;;;5018471;28;20026;-82
2023/09/06 14:18:59;;;;;;;0.35;0.35;;;;;;;;;;5018466;28;20117;-80
2023/09/06 14:21:25;;;;;;;0.30;0.30;;;;;;;;;;5036032;28;20101;-81
2023/09/06 14:23:51;;;;;;;0.20;0.20;;;;;;;;;;5018413;28;20033;-81
2023/09/06 14:26:17;;;;;;;0.20;0.20;;;;;;;;;;5018456;28;20056;-80
2023/09/06 14:28:43;;;;;;;0.20;0.20;;;;;;;;;;5018026;28;20049;-81
2023/09/06 14:31:13;;;;;;;0.32;0.32;;;;;;;;;;5018275;28;20061;-80
2023/09/06 14:33:39;;;;;;;0.22;0.22;;;;;;;;;;5018069;28;20021;-79
2023/09/06 14:36:06;;;;;;;0.20;0.20;;;;;;;;;;5018131;28;20025;-80
2023/09/06 14:38:32;;;;;;;0.28;0.28;;;;;;;;;;5017992;28;20030;-82
2023/09/06 14:40:58;;;;;;;0.20;0.20;;;;;;;;;;5017330;28;20083;-82
2023/09/06 14:43:25;;;;;;;0.20;0.20;;;;;;;;;;5017839;28;20033;-79